createdAt,value
2022-10-06T00:00:10.225Z,9.43
2022-10-06T00:04:13.345Z,6.32
2022-10-06T00:08:16.699Z,3.92
2022-10-06T00:12:19.409Z,6.40
2022-10-06T00:16:22.525Z,8.15
2022-10-06T00:20:29.097Z,6.10
2022-10-06T00:24:35.171Z,5.85
2022-10-06T00:28:38.057Z,5.85
2022-10-06T00:32:41.180Z,9.65
2022-10-06T00:36:44.398Z,6.10
2022-10-06T00:40:51.110Z,5.40
2022-10-06T00:49:17.499Z,7.07
2022-10-06T00:53:21.866Z,7.45
2022-10-06T00:57:27.632Z,6.07
2022-10-06T01:01:32.421Z,7.27
2022-10-06T01:05:41.531Z,8.63
2022-10-06T01:09:45.573Z,5.82
2022-10-06T01:13:49.556Z,6.03
2022-10-06T01:18:15.039Z,5.25
2022-10-06T01:22:28.544Z,5.68
2022-10-06T01:26:34.157Z,6.25
2022-10-06T01:30:43.596Z,8.25
2022-10-06T01:34:46.442Z,7.63
2022-10-06T01:38:49.197Z,5.05
2022-10-06T01:42:52.074Z,5.93
2022-10-06T01:46:54.921Z,5.47
2022-10-06T01:50:57.890Z,6.57
2022-10-06T01:55:01.059Z,5.65
2022-10-06T01:59:04.050Z,8.68
2022-10-06T02:03:08.001Z,6.65
2022-10-06T02:07:10.758Z,8.23
2022-10-06T02:11:20.760Z,6.38
2022-10-06T02:15:27.064Z,9.95
2022-10-06T02:19:30.654Z,10.45
2022-10-06T02:23:34.740Z,7.72
2022-10-06T02:27:39.207Z,8.50
2022-10-06T02:31:43.405Z,7.78
2022-10-06T02:35:47.213Z,8.15
2022-10-06T02:39:50.259Z,10.43
2022-10-06T02:43:55.341Z,5.60
2022-10-06T02:47:58.843Z,8.77
2022-10-06T02:52:01.706Z,6.15
2022-10-06T02:56:08.685Z,8.38
2022-10-06T03:00:12.208Z,11.35
2022-10-06T03:04:15.271Z,6.43
2022-10-06T03:08:18.700Z,5.05
2022-10-06T03:12:22.440Z,5.68
2022-10-06T03:16:32.142Z,6.47
2022-10-06T03:20:36.015Z,6.30
2022-10-06T03:24:39.684Z,7.90
2022-10-06T03:28:42.700Z,5.80
2022-10-06T03:32:45.677Z,8.50
2022-10-06T03:36:49.184Z,6.22
2022-10-06T03:41:09.575Z,9.20
2022-10-06T03:45:12.975Z,6.05
2022-10-06T03:49:15.937Z,5.18
2022-10-06T03:53:18.761Z,11.48
2022-10-06T03:57:21.958Z,6.80
2022-10-06T04:01:31.657Z,5.53
2022-10-06T04:05:37.860Z,5.78
2022-10-06T04:09:40.973Z,6.10
2022-10-06T04:13:45.799Z,7.03
2022-10-06T04:17:48.778Z,5.78
2022-10-06T04:21:52.284Z,8.93
2022-10-06T04:26:05.300Z,9.87
2022-10-06T04:30:08.914Z,9.98
2022-10-06T04:34:13.571Z,10.00
2022-10-06T04:38:17.677Z,6.22
2022-10-06T04:42:20.910Z,6.65
2022-10-06T04:46:42.040Z,5.63
2022-10-06T04:50:57.633Z,5.80
2022-10-06T04:55:01.888Z,4.53
2022-10-06T04:59:04.974Z,7.88
2022-10-06T05:03:13.375Z,7.05
2022-10-06T05:07:23.217Z,7.15
2022-10-06T05:11:28.237Z,9.82
2022-10-06T05:15:31.855Z,7.07
2022-10-06T05:19:36.149Z,7.90
2022-10-06T05:23:40.854Z,9.30
2022-10-06T05:27:43.845Z,8.30
2022-10-06T05:31:48.581Z,10.10
2022-10-06T05:35:56.953Z,16.17
2022-10-06T05:39:59.990Z,15.40
2022-10-06T05:44:03.295Z,14.77
2022-10-06T05:48:07.856Z,10.55
2022-10-06T05:52:10.799Z,11.00
2022-10-06T05:56:19.485Z,10.65
2022-10-06T06:00:22.394Z,9.02
2022-10-06T06:04:25.419Z,9.93
2022-10-06T06:08:32.174Z,8.45
2022-10-06T06:12:35.857Z,5.97
2022-10-06T06:17:05.577Z,12.57
2022-10-06T06:21:10.416Z,9.32
2022-10-06T06:25:13.656Z,9.77
2022-10-06T06:29:18.882Z,10.85
2022-10-06T06:33:24.315Z,13.30
2022-10-06T06:37:27.680Z,12.48
2022-10-06T06:41:33.976Z,17.13
2022-10-06T06:45:42.450Z,15.05
2022-10-06T06:50:10.392Z,13.50
2022-10-06T06:54:15.879Z,12.02
2022-10-06T06:58:20.987Z,12.05
2022-10-06T07:02:26.579Z,9.13
2022-10-06T07:06:31.191Z,12.18
2022-10-06T07:15:03.833Z,10.23
2022-10-06T07:19:31.454Z,10.70
2022-10-06T07:23:52.675Z,9.68
2022-10-06T07:27:56.932Z,12.52
2022-10-06T07:32:07.331Z,14.93
2022-10-06T07:36:11.242Z,9.85
2022-10-06T07:40:15.852Z,13.43
2022-10-06T07:44:18.757Z,11.43
2022-10-06T07:48:23.726Z,10.65
2022-10-06T07:52:29.934Z,12.57
2022-10-06T07:56:34.197Z,9.98
2022-10-06T08:00:37.313Z,10.80
2022-10-06T08:04:40.999Z,12.23
2022-10-06T08:08:47.115Z,7.47
2022-10-06T08:12:53.227Z,11.60
2022-10-06T08:16:56.053Z,8.25
2022-10-06T08:21:29.811Z,11.68
2022-10-06T08:25:33.502Z,12.15
2022-10-06T08:29:36.933Z,9.43
2022-10-06T08:33:42.444Z,9.70
2022-10-06T08:37:48.219Z,8.75
2022-10-06T08:41:53.317Z,8.83
2022-10-06T08:46:01.862Z,9.38
2022-10-06T08:50:13.134Z,10.57
2022-10-06T08:54:25.551Z,11.20
2022-10-06T08:58:44.862Z,9.45
2022-10-06T09:02:51.056Z,11.02
2022-10-06T09:07:00.436Z,10.07
2022-10-06T09:11:22.541Z,11.75
2022-10-06T09:16:07.755Z,12.30
2022-10-06T09:20:28.811Z,12.73
2022-10-06T09:24:43.582Z,13.80
2022-10-06T09:28:51.411Z,12.43
2022-10-06T09:33:05.964Z,14.18
2022-10-06T09:37:12.811Z,15.15
2022-10-06T09:41:16.553Z,13.10
2022-10-06T09:45:25.973Z,15.50
2022-10-06T09:49:31.704Z,10.52
2022-10-06T09:53:37.697Z,12.55
2022-10-06T09:57:50.991Z,11.27
2022-10-06T10:01:55.573Z,12.73
2022-10-06T10:05:59.992Z,11.70
2022-10-06T10:10:25.345Z,11.32
2022-10-06T10:14:37.229Z,15.73
2022-10-06T10:18:46.953Z,12.88
2022-10-06T10:22:50.382Z,11.45
2022-10-06T10:26:57.134Z,7.57
2022-10-06T10:31:48.477Z,11.05
2022-10-06T10:35:56.072Z,7.38
2022-10-06T10:40:29.975Z,8.77
2022-10-06T10:44:42.057Z,8.25
2022-10-06T10:48:51.662Z,6.95
2022-10-06T10:57:35.337Z,7.75
2022-10-06T11:01:47.185Z,9.38
2022-10-06T11:06:24.932Z,7.70
2022-10-06T11:10:43.458Z,6.68
2022-10-06T11:14:54.398Z,5.70
2022-10-06T11:19:15.506Z,7.20
2022-10-06T11:23:36.486Z,5.90
2022-10-06T11:28:04.503Z,5.97
2022-10-06T11:32:13.199Z,4.60
2022-10-06T11:36:28.127Z,3.97
2022-10-06T11:40:50.762Z,5.20
2022-10-06T11:45:13.049Z,4.47
2022-10-06T11:49:28.688Z,6.63
2022-10-06T11:53:39.086Z,2.83
2022-10-06T11:58:05.368Z,4.32
2022-10-06T12:02:30.950Z,3.17
2022-10-06T12:06:46.759Z,3.95
2022-10-06T12:10:50.728Z,8.23
2022-10-06T12:19:53.493Z,4.35
2022-10-06T12:24:19.385Z,3.70
2022-10-06T12:28:49.352Z,6.35
2022-10-06T12:32:53.819Z,5.38
2022-10-06T12:37:33.760Z,5.10
2022-10-06T12:42:21.656Z,4.00
2022-10-06T12:46:53.230Z,5.72
2022-10-06T12:51:31.119Z,4.53
2022-10-06T12:55:52.336Z,4.70
2022-10-06T12:59:55.541Z,5.78
2022-10-06T13:03:58.307Z,5.65
2022-10-06T13:08:07.470Z,2.83
2022-10-06T13:12:19.856Z,4.05
2022-10-06T13:16:37.003Z,3.30
2022-10-06T13:20:42.097Z,1.98
2022-10-06T13:24:44.881Z,8.98
2022-10-06T13:28:53.297Z,2.25
2022-10-06T13:32:57.088Z,2.60
2022-10-06T13:37:01.405Z,2.85
2022-10-06T13:41:25.860Z,4.28
2022-10-06T13:45:29.140Z,4.00
2022-10-06T13:49:57.747Z,3.92
2022-10-06T13:54:21.754Z,3.30
2022-10-06T13:58:33.257Z,2.83
2022-10-06T14:02:40.040Z,4.93
2022-10-06T14:06:56.764Z,4.32
2022-10-06T14:11:08.453Z,2.53
2022-10-06T14:15:23.022Z,2.90
2022-10-06T14:19:52.119Z,3.85
2022-10-06T14:23:59.310Z,3.75
2022-10-06T14:28:07.737Z,5.22
2022-10-06T14:32:27.705Z,3.33
2022-10-06T14:36:41.299Z,2.85
2022-10-06T14:40:57.931Z,3.55
2022-10-06T14:49:07.651Z,3.92
2022-10-06T14:53:18.061Z,5.30
2022-10-06T14:57:25.667Z,4.05
2022-10-06T15:01:29.252Z,4.75
2022-10-06T15:05:32.148Z,4.00
2022-10-06T15:09:35.799Z,5.00
2022-10-06T15:13:40.417Z,8.93
2022-10-06T15:17:43.987Z,34.63
2022-10-06T15:21:51.914Z,12.35
2022-10-06T15:26:24.295Z,7.43
2022-10-06T15:30:41.968Z,4.80
2022-10-06T15:34:45.001Z,5.25
2022-10-06T15:38:48.392Z,5.32
2022-10-06T15:42:52.921Z,4.35
2022-10-06T15:46:56.738Z,3.65
2022-10-06T15:50:59.657Z,4.97
2022-10-06T15:55:03.440Z,5.97
2022-10-06T15:59:07.465Z,5.35
2022-10-06T16:03:24.628Z,5.35
2022-10-06T16:07:28.770Z,3.67
2022-10-06T16:11:31.499Z,4.75
2022-10-06T16:15:34.409Z,6.25
2022-10-06T16:19:38.626Z,3.85
2022-10-06T16:23:41.455Z,5.88
2022-10-06T16:27:44.289Z,5.00
2022-10-06T16:31:48.260Z,5.53
2022-10-06T16:35:55.958Z,3.58
2022-10-06T16:39:58.896Z,4.18
2022-10-06T16:44:01.781Z,4.85
2022-10-06T16:48:04.948Z,5.03
2022-10-06T16:52:07.809Z,3.05
2022-10-06T16:56:21.223Z,3.05
2022-10-06T17:00:25.869Z,5.47
2022-10-06T17:04:28.940Z,4.47
2022-10-06T17:08:32.169Z,5.75
2022-10-06T17:12:35.053Z,6.15
2022-10-06T17:16:41.340Z,5.32
2022-10-06T17:20:54.167Z,5.70
2022-10-06T17:24:57.149Z,4.80
2022-10-06T17:29:01.760Z,3.67
2022-10-06T17:33:04.801Z,5.18
2022-10-06T17:37:07.627Z,5.05
2022-10-06T17:41:25.576Z,5.28
2022-10-06T17:45:28.745Z,7.32
2022-10-06T17:49:34.714Z,9.68
2022-10-06T17:53:46.466Z,8.48
2022-10-06T17:57:49.256Z,9.70
2022-10-06T18:01:56.301Z,14.23
2022-10-06T18:06:00.559Z,10.77
2022-10-06T18:10:22.408Z,8.45
2022-10-06T18:14:27.378Z,11.27
2022-10-06T18:18:31.285Z,6.78
2022-10-06T18:22:34.185Z,8.32
2022-10-06T18:26:38.612Z,7.03
2022-10-06T18:30:41.531Z,6.47
2022-10-06T18:39:08.440Z,8.00
2022-10-06T18:43:11.383Z,9.27
2022-10-06T18:47:32.630Z,6.03
2022-10-06T18:51:38.536Z,6.07
2022-10-06T18:55:41.353Z,8.03
2022-10-06T18:59:44.746Z,5.43
2022-10-06T19:03:47.699Z,7.30
2022-10-06T19:07:53.106Z,7.53
2022-10-06T19:11:57.922Z,7.55
2022-10-06T19:16:02.142Z,6.28
2022-10-06T19:20:05.672Z,6.30
2022-10-06T19:24:11.727Z,6.93
2022-10-06T19:28:14.813Z,7.43
2022-10-06T19:32:21.616Z,7.72
2022-10-06T19:36:25.697Z,7.38
2022-10-06T19:40:28.628Z,5.97
2022-10-06T19:44:31.513Z,8.10
2022-10-06T19:48:34.594Z,7.22
2022-10-06T19:52:37.748Z,10.55
2022-10-06T19:56:42.122Z,10.27
2022-10-06T20:00:45.020Z,5.97
2022-10-06T20:04:48.122Z,6.22
2022-10-06T20:08:53.095Z,7.63
2022-10-06T20:12:58.640Z,6.53
2022-10-06T20:17:02.759Z,8.40
2022-10-06T20:21:07.512Z,6.13
2022-10-06T20:25:10.425Z,7.00
2022-10-06T20:29:15.439Z,6.00
2022-10-06T20:33:18.348Z,7.05
2022-10-06T20:37:21.203Z,6.47
2022-10-06T20:41:24.056Z,6.35
2022-10-06T20:45:26.860Z,9.05
2022-10-06T20:49:29.605Z,5.93
2022-10-06T20:53:32.453Z,9.02
2022-10-06T20:57:35.213Z,8.38
2022-10-06T21:01:40.252Z,11.93
2022-10-06T21:05:51.283Z,11.45
2022-10-06T21:09:55.189Z,13.50
2022-10-06T21:13:58.419Z,11.57
2022-10-06T21:18:03.758Z,7.88
2022-10-06T21:22:06.613Z,8.70
2022-10-06T21:26:12.514Z,10.70
2022-10-06T21:30:15.268Z,7.63
2022-10-06T21:34:18.284Z,8.60
2022-10-06T21:38:21.403Z,7.95
2022-10-06T21:42:24.152Z,13.05
2022-10-06T21:46:30.482Z,6.10
2022-10-06T21:50:33.379Z,6.68
2022-10-06T21:54:38.127Z,10.90
2022-10-06T21:58:40.945Z,6.80
2022-10-06T22:02:43.795Z,7.82
2022-10-06T22:06:50.190Z,10.07
2022-10-06T22:10:52.959Z,7.90
2022-10-06T22:14:59.089Z,7.78
2022-10-06T22:19:03.936Z,7.65
2022-10-06T22:23:06.748Z,7.40
2022-10-06T22:27:09.467Z,8.00
2022-10-06T22:31:13.404Z,8.80
2022-10-06T22:35:17.431Z,7.05
2022-10-06T22:39:20.312Z,7.88
2022-10-06T22:43:23.075Z,6.95
2022-10-06T22:47:25.864Z,7.45
2022-10-06T22:51:28.742Z,6.80
2022-10-06T22:55:31.361Z,7.90
2022-10-06T22:59:34.231Z,11.48
2022-10-06T23:03:37.085Z,6.22
2022-10-06T23:07:39.892Z,9.10
2022-10-06T23:11:42.879Z,8.82
2022-10-06T23:15:45.765Z,8.30
2022-10-06T23:19:48.446Z,8.70
2022-10-06T23:23:53.595Z,7.53
2022-10-06T23:27:56.701Z,9.02
2022-10-06T23:31:59.845Z,8.02
2022-10-06T23:36:05.854Z,8.57
2022-10-06T23:40:09.118Z,10.40
2022-10-06T23:44:11.907Z,8.80
2022-10-06T23:48:15.321Z,8.35
2022-10-06T23:52:18.415Z,5.78
2022-10-06T23:56:21.783Z,8.77
